sensor_id;sensor_type;location;lat;lon;timestamp;temperature;humidity
11126;DHT22;5617;54.046;10.676;2024-03-06T07:06:16;3.40;99.90
11126;DHT22;5617;54.046;10.676;2024-03-06T07:08:27;3.40;99.90
11126;DHT22;5617;54.046;10.676;2024-03-06T07:10:44;3.50;99.90
11126;DHT22;5617;54.046;10.676;2024-03-06T07:12:54;3.50;99.90
11126;DHT22;5617;54.046;10.676;2024-03-06T07:15:03;3.60;99.90
11126;DHT22;5617;54.046;10.676;2024-03-06T07:17:15;3.80;99.90
11126;DHT22;5617;54.046;10.676;2024-03-06T07:19:24;3.90;99.90
11126;DHT22;5617;54.046;10.676;2024-03-06T07:21:39;4.00;99.90
11126;DHT22;5617;54.046;10.676;2024-03-06T07:23:48;4.10;99.90
11126;DHT22;5617;54.046;10.676;2024-03-06T07:25:57;4.20;99.90
11126;DHT22;5617;54.046;10.676;2024-03-06T07:28:06;4.20;99.90
11126;DHT22;5617;54.046;10.676;2024-03-06T07:30:24;4.30;99.90
11126;DHT22;5617;54.046;10.676;2024-03-06T07:32:37;4.40;99.90
11126;DHT22;5617;54.046;10.676;2024-03-06T07:34:52;4.40;99.90
11126;DHT22;5617;54.046;10.676;2024-03-06T07:37:08;4.50;99.90
11126;DHT22;5617;54.046;10.676;2024-03-06T07:39:22;4.50;99.90
11126;DHT22;5617;54.046;10.676;2024-03-06T07:41:30;4.60;99.90
11126;DHT22;5617;54.046;10.676;2024-03-06T07:43:45;4.70;99.90
11126;DHT22;5617;54.046;10.676;2024-03-06T07:45:53;4.70;99.90
11126;DHT22;5617;54.046;10.676;2024-03-06T07:48:05;4.80;99.90
11126;DHT22;5617;54.046;10.676;2024-03-06T07:50:13;4.80;99.90
11126;DHT22;5617;54.046;10.676;2024-03-06T07:52:34;4.80;99.90
11126;DHT22;5617;54.046;10.676;2024-03-06T07:54:44;4.80;99.90
11126;DHT22;5617;54.046;10.676;2024-03-06T07:56:52;4.90;99.90
11126;DHT22;5617;54.046;10.676;2024-03-06T07:59:02;5.00;99.90
11126;DHT22;5617;54.046;10.676;2024-03-06T08:01:10;5.00;99.90
11126;DHT22;5617;54.046;10.676;2024-03-06T08:03:21;5.10;99.90
11126;DHT22;5617;54.046;10.676;2024-03-06T08:05:30;5.20;99.90
11126;DHT22;5617;54.046;10.676;2024-03-06T08:07:42;5.20;99.90
11126;DHT22;5617;54.046;10.676;2024-03-06T08:09:52;5.30;99.90
11126;DHT22;5617;54.046;10.676;2024-03-06T08:12:09;5.30;99.90
11126;DHT22;5617;54.046;10.676;2024-03-06T08:14:18;5.40;99.90
11126;DHT22;5617;54.046;10.676;2024-03-06T08:16:27;5.30;99.90
11126;DHT22;5617;54.046;10.676;2024-03-06T08:18:39;5.20;99.90
11126;DHT22;5617;54.046;10.676;2024-03-06T08:20:48;5.20;99.90
11126;DHT22;5617;54.046;10.676;2024-03-06T08:23:01;5.20;99.90
11126;DHT22;5617;54.046;10.676;2024-03-06T08:25:16;5.20;99.90
11126;DHT22;5617;54.046;10.676;2024-03-06T08:27:25;5.20;99.90
11126;DHT22;5617;54.046;10.676;2024-03-06T08:29:35;5.20;99.90
11126;DHT22;5617;54.046;10.676;2024-03-06T08:31:44;5.30;99.90
11126;DHT22;5617;54.046;10.676;2024-03-06T08:33:57;5.30;99.90
11126;DHT22;5617;54.046;10.676;2024-03-06T08:36:06;5.20;99.90
11126;DHT22;5617;54.046;10.676;2024-03-06T08:38:16;5.20;99.90
11126;DHT22;5617;54.046;10.676;2024-03-06T08:40:25;5.20;99.90
11126;DHT22;5617;54.046;10.676;2024-03-06T08:42:34;5.30;99.90
11126;DHT22;5617;54.046;10.676;2024-03-06T08:44:43;5.40;99.90
11126;DHT22;5617;54.046;10.676;2024-03-06T08:46:51;5.40;99.90
11126;DHT22;5617;54.046;10.676;2024-03-06T08:49:01;5.30;99.90
11126;DHT22;5617;54.046;10.676;2024-03-06T08:51:19;5.40;99.90
11126;DHT22;5617;54.046;10.676;2024-03-06T08:53:30;5.40;99.90
11126;DHT22;5617;54.046;10.676;2024-03-06T08:55:44;5.40;99.90
11126;DHT22;5617;54.046;10.676;2024-03-06T08:57:53;5.30;99.90
11126;DHT22;5617;54.046;10.676;2024-03-06T09:00:02;5.30;99.90
11126;DHT22;5617;54.046;10.676;2024-03-06T09:02:13;5.40;99.90
11126;DHT22;5617;54.046;10.676;2024-03-06T09:04:22;5.40;99.90
11126;DHT22;5617;54.046;10.676;2024-03-06T09:06:31;5.40;99.90
11126;DHT22;5617;54.046;10.676;2024-03-06T09:08:44;5.40;99.90
11126;DHT22;5617;54.046;10.676;2024-03-06T09:10:54;5.40;99.90
11126;DHT22;5617;54.046;10.676;2024-03-06T09:13:06;5.40;99.90
11126;DHT22;5617;54.046;10.676;2024-03-06T09:15:15;5.40;99.90
11126;DHT22;5617;54.046;10.676;2024-03-06T09:17:24;5.40;99.90
11126;DHT22;5617;54.046;10.676;2024-03-06T09:19:42;5.40;99.90
11126;DHT22;5617;54.046;10.676;2024-03-06T09:22:09;5.40;99.90
11126;DHT22;5617;54.046;10.676;2024-03-06T09:24:20;5.50;99.90
11126;DHT22;5617;54.046;10.676;2024-03-06T09:26:29;5.50;99.90
11126;DHT22;5617;54.046;10.676;2024-03-06T09:28:40;5.50;99.90
11126;DHT22;5617;54.046;10.676;2024-03-06T09:30:47;5.50;99.90
11126;DHT22;5617;54.046;10.676;2024-03-06T09:32:56;5.50;99.90
11126;DHT22;5617;54.046;10.676;2024-03-06T09:35:06;5.60;99.90
11126;DHT22;5617;54.046;10.676;2024-03-06T09:37:18;5.50;99.90
11126;DHT22;5617;54.046;10.676;2024-03-06T09:39:30;5.40;99.90
11126;DHT22;5617;54.046;10.676;2024-03-06T09:41:39;5.40;99.90
11126;DHT22;5617;54.046;10.676;2024-03-06T09:43:52;5.40;99.90
11126;DHT22;5617;54.046;10.676;2024-03-06T09:46:02;5.50;99.90
11126;DHT22;5617;54.046;10.676;2024-03-06T09:48:11;5.50;99.90
11126;DHT22;5617;54.046;10.676;2024-03-06T09:50:23;5.50;99.90
11126;DHT22;5617;54.046;10.676;2024-03-06T09:52:34;5.50;99.90
11126;DHT22;5617;54.046;10.676;2024-03-06T09:54:45;5.50;99.90
11126;DHT22;5617;54.046;10.676;2024-03-06T09:56:56;5.50;99.90
11126;DHT22;5617;54.046;10.676;2024-03-06T09:59:09;5.50;99.90
11126;DHT22;5617;54.046;10.676;2024-03-06T10:01:18;5.50;99.90
11126;DHT22;5617;54.046;10.676;2024-03-06T10:03:27;5.50;99.90
11126;DHT22;5617;54.046;10.676;2024-03-06T10:05:36;5.50;99.90
11126;DHT22;5617;54.046;10.676;2024-03-06T10:07:46;5.60;99.90
11126;DHT22;5617;54.046;10.676;2024-03-06T10:09:56;5.50;99.90
11126;DHT22;5617;54.046;10.676;2024-03-06T10:12:09;5.50;99.90
11126;DHT22;5617;54.046;10.676;2024-03-06T10:14:20;5.50;99.90
11126;DHT22;5617;54.046;10.676;2024-03-06T10:16:28;5.60;99.90
11126;DHT22;5617;54.046;10.676;2024-03-06T10:18:37;5.60;99.90
11126;DHT22;5617;54.046;10.676;2024-03-06T10:20:48;5.60;99.90
11126;DHT22;5617;54.046;10.676;2024-03-06T10:22:59;5.60;99.90
11126;DHT22;5617;54.046;10.676;2024-03-06T10:25:09;5.60;99.90
11126;DHT22;5617;54.046;10.676;2024-03-06T10:27:18;5.60;99.90
11126;DHT22;5617;54.046;10.676;2024-03-06T10:29:29;5.60;99.90
11126;DHT22;5617;54.046;10.676;2024-03-06T10:31:38;5.60;99.90
11126;DHT22;5617;54.046;10.676;2024-03-06T10:33:53;5.70;99.90
11126;DHT22;5617;54.046;10.676;2024-03-06T10:36:01;5.60;99.90
11126;DHT22;5617;54.046;10.676;2024-03-06T10:38:12;5.60;99.90
11126;DHT22;5617;54.046;10.676;2024-03-06T10:40:22;5.60;99.90
11126;DHT22;5617;54.046;10.676;2024-03-06T10:42:33;5.50;99.90
11126;DHT22;5617;54.046;10.676;2024-03-06T10:44:48;5.60;99.90
11126;DHT22;5617;54.046;10.676;2024-03-06T10:47:00;5.60;99.90
11126;DHT22;5617;54.046;10.676;2024-03-06T10:49:12;5.60;99.90
11126;DHT22;5617;54.046;10.676;2024-03-06T10:51:22;5.60;99.90
11126;DHT22;5617;54.046;10.676;2024-03-06T10:53:31;5.60;99.90
11126;DHT22;5617;54.046;10.676;2024-03-06T10:55:43;5.60;99.90
11126;DHT22;5617;54.046;10.676;2024-03-06T10:57:56;5.70;99.90
11126;DHT22;5617;54.046;10.676;2024-03-06T11:00:06;5.60;99.90
11126;DHT22;5617;54.046;10.676;2024-03-06T11:02:15;5.60;99.90
11126;DHT22;5617;54.046;10.676;2024-03-06T11:04:25;5.60;99.90
11126;DHT22;5617;54.046;10.676;2024-03-06T11:06:41;5.60;99.90
11126;DHT22;5617;54.046;10.676;2024-03-06T11:09:02;5.60;99.90
11126;DHT22;5617;54.046;10.676;2024-03-06T11:11:22;5.60;99.90
11126;DHT22;5617;54.046;10.676;2024-03-06T11:13:32;5.60;99.90
11126;DHT22;5617;54.046;10.676;2024-03-06T11:15:41;5.60;99.90
11126;DHT22;5617;54.046;10.676;2024-03-06T11:17:51;5.60;99.90
11126;DHT22;5617;54.046;10.676;2024-03-06T11:20:13;5.60;99.90
11126;DHT22;5617;54.046;10.676;2024-03-06T11:25:04;5.50;99.90
11126;DHT22;5617;54.046;10.676;2024-03-06T11:27:18;5.50;99.90
11126;DHT22;5617;54.046;10.676;2024-03-06T11:29:28;5.60;99.90
11126;DHT22;5617;54.046;10.676;2024-03-06T11:31:37;5.60;99.90
11126;DHT22;5617;54.046;10.676;2024-03-06T11:34:04;5.60;99.90
11126;DHT22;5617;54.046;10.676;2024-03-06T11:36:24;5.70;99.90
11126;DHT22;5617;54.046;10.676;2024-03-06T11:38:37;5.70;99.90
11126;DHT22;5617;54.046;10.676;2024-03-06T11:40:45;5.70;99.90
11126;DHT22;5617;54.046;10.676;2024-03-06T11:43:24;5.70;99.90
11126;DHT22;5617;54.046;10.676;2024-03-06T11:45:43;5.70;99.90
11126;DHT22;5617;54.046;10.676;2024-03-06T11:47:56;5.70;99.90
11126;DHT22;5617;54.046;10.676;2024-03-06T11:50:09;5.70;99.90
11126;DHT22;5617;54.046;10.676;2024-03-06T11:52:19;5.70;99.90
11126;DHT22;5617;54.046;10.676;2024-03-06T11:54:29;5.70;99.90
11126;DHT22;5617;54.046;10.676;2024-03-06T11:56:39;5.70;99.90
11126;DHT22;5617;54.046;10.676;2024-03-06T11:58:53;5.80;99.90
11126;DHT22;5617;54.046;10.676;2024-03-06T12:01:02;5.90;99.90
11126;DHT22;5617;54.046;10.676;2024-03-06T12:03:11;5.90;99.90
11126;DHT22;5617;54.046;10.676;2024-03-06T12:05:20;5.90;99.90
11126;DHT22;5617;54.046;10.676;2024-03-06T12:07:29;5.80;99.90
11126;DHT22;5617;54.046;10.676;2024-03-06T12:09:39;5.80;99.90
11126;DHT22;5617;54.046;10.676;2024-03-06T12:11:52;5.80;99.90
11126;DHT22;5617;54.046;10.676;2024-03-06T12:14:04;5.80;99.90
11126;DHT22;5617;54.046;10.676;2024-03-06T12:16:12;5.70;99.90
11126;DHT22;5617;54.046;10.676;2024-03-06T12:18:24;5.70;99.90
11126;DHT22;5617;54.046;10.676;2024-03-06T12:20:32;5.80;99.90
11126;DHT22;5617;54.046;10.676;2024-03-06T12:22:45;5.80;99.90
11126;DHT22;5617;54.046;10.676;2024-03-06T12:25:00;5.80;99.90
11126;DHT22;5617;54.046;10.676;2024-03-06T12:27:09;5.70;99.90
11126;DHT22;5617;54.046;10.676;2024-03-06T12:29:19;5.70;99.90
11126;DHT22;5617;54.046;10.676;2024-03-06T12:31:45;5.60;99.90
11126;DHT22;5617;54.046;10.676;2024-03-06T12:33:56;5.50;99.90
11126;DHT22;5617;54.046;10.676;2024-03-06T12:36:15;5.50;99.90
11126;DHT22;5617;54.046;10.676;2024-03-06T12:38:28;5.50;99.90
11126;DHT22;5617;54.046;10.676;2024-03-06T12:40:36;5.50;99.90
11126;DHT22;5617;54.046;10.676;2024-03-06T12:45:05;5.50;99.90
11126;DHT22;5617;54.046;10.676;2024-03-06T12:47:22;5.50;99.90
11126;DHT22;5617;54.046;10.676;2024-03-06T12:49:32;5.40;99.90
11126;DHT22;5617;54.046;10.676;2024-03-06T12:51:40;5.40;99.90
11126;DHT22;5617;54.046;10.676;2024-03-06T12:53:55;5.50;99.90
11126;DHT22;5617;54.046;10.676;2024-03-06T12:56:05;5.50;99.90
11126;DHT22;5617;54.046;10.676;2024-03-06T12:58:14;5.40;99.90
11126;DHT22;5617;54.046;10.676;2024-03-06T13:00:29;5.50;99.90
11126;DHT22;5617;54.046;10.676;2024-03-06T13:02:38;5.50;99.90
11126;DHT22;5617;54.046;10.676;2024-03-06T13:05:03;5.50;99.90
11126;DHT22;5617;54.046;10.676;2024-03-06T13:07:30;5.50;99.90
11126;DHT22;5617;54.046;10.676;2024-03-06T13:09:46;5.50;99.90
11126;DHT22;5617;54.046;10.676;2024-03-06T13:12:00;5.50;99.90
11126;DHT22;5617;54.046;10.676;2024-03-06T13:14:17;5.60;99.90
11126;DHT22;5617;54.046;10.676;2024-03-06T13:16:31;5.60;99.90
11126;DHT22;5617;54.046;10.676;2024-03-06T13:18:40;5.60;99.90
11126;DHT22;5617;54.046;10.676;2024-03-06T13:20:48;5.60;99.90
11126;DHT22;5617;54.046;10.676;2024-03-06T13:23:00;5.60;99.90
11126;DHT22;5617;54.046;10.676;2024-03-06T13:25:08;5.70;99.90
11126;DHT22;5617;54.046;10.676;2024-03-06T13:27:17;5.70;99.90
11126;DHT22;5617;54.046;10.676;2024-03-06T13:29:25;5.70;99.90
11126;DHT22;5617;54.046;10.676;2024-03-06T13:31:36;5.60;99.90
11126;DHT22;5617;54.046;10.676;2024-03-06T13:33:49;5.70;99.90
11126;DHT22;5617;54.046;10.676;2024-03-06T13:35:58;5.60;99.90
11126;DHT22;5617;54.046;10.676;2024-03-06T13:38:18;5.60;99.90
11126;DHT22;5617;54.046;10.676;2024-03-06T13:40:31;5.60;99.90
11126;DHT22;5617;54.046;10.676;2024-03-06T13:42:51;5.60;99.90
11126;DHT22;5617;54.046;10.676;2024-03-06T13:45:03;5.60;99.90
11126;DHT22;5617;54.046;10.676;2024-03-06T13:47:20;5.50;99.90
11126;DHT22;5617;54.046;10.676;2024-03-06T13:49:38;5.50;99.90
11126;DHT22;5617;54.046;10.676;2024-03-06T13:51:46;5.50;99.90
11126;DHT22;5617;54.046;10.676;2024-03-06T13:53:54;5.50;99.90
11126;DHT22;5617;54.046;10.676;2024-03-06T13:56:07;5.50;99.90
11126;DHT22;5617;54.046;10.676;2024-03-06T13:58:16;5.40;99.90
11126;DHT22;5617;54.046;10.676;2024-03-06T14:00:26;5.40;99.90
11126;DHT22;5617;54.046;10.676;2024-03-06T14:02:47;5.50;99.90
11126;DHT22;5617;54.046;10.676;2024-03-06T14:04:56;5.50;99.90
11126;DHT22;5617;54.046;10.676;2024-03-06T14:07:14;5.50;99.90
11126;DHT22;5617;54.046;10.676;2024-03-06T14:09:23;5.50;99.90
11126;DHT22;5617;54.046;10.676;2024-03-06T14:11:33;5.50;99.90
11126;DHT22;5617;54.046;10.676;2024-03-06T14:13:45;5.50;99.90
11126;DHT22;5617;54.046;10.676;2024-03-06T14:15:58;5.40;99.90
11126;DHT22;5617;54.046;10.676;2024-03-06T14:18:09;5.50;99.90
11126;DHT22;5617;54.046;10.676;2024-03-06T14:20:18;5.50;99.90
11126;DHT22;5617;54.046;10.676;2024-03-06T14:22:26;5.50;99.90
11126;DHT22;5617;54.046;10.676;2024-03-06T14:24:35;5.50;99.90
11126;DHT22;5617;54.046;10.676;2024-03-06T14:26:44;5.60;99.90
11126;DHT22;5617;54.046;10.676;2024-03-06T14:28:51;5.60;99.90
11126;DHT22;5617;54.046;10.676;2024-03-06T14:31:00;5.60;99.90
11126;DHT22;5617;54.046;10.676;2024-03-06T14:33:10;5.60;99.90
11126;DHT22;5617;54.046;10.676;2024-03-06T14:35:19;5.50;99.90
11126;DHT22;5617;54.046;10.676;2024-03-06T14:37:27;5.50;99.90
11126;DHT22;5617;54.046;10.676;2024-03-06T14:39:36;5.40;99.90
11126;DHT22;5617;54.046;10.676;2024-03-06T14:41:44;5.40;99.90
11126;DHT22;5617;54.046;10.676;2024-03-06T14:43:54;5.50;99.90
11126;DHT22;5617;54.046;10.676;2024-03-06T14:46:03;5.50;99.90
11126;DHT22;5617;54.046;10.676;2024-03-06T14:48:13;5.50;99.90
11126;DHT22;5617;54.046;10.676;2024-03-06T14:50:22;5.50;99.90
11126;DHT22;5617;54.046;10.676;2024-03-06T14:52:32;5.60;99.90
11126;DHT22;5617;54.046;10.676;2024-03-06T14:54:46;5.70;99.90
11126;DHT22;5617;54.046;10.676;2024-03-06T14:56:55;5.80;99.90
11126;DHT22;5617;54.046;10.676;2024-03-06T14:59:03;5.70;99.90
11126;DHT22;5617;54.046;10.676;2024-03-06T15:01:12;5.70;99.90
11126;DHT22;5617;54.046;10.676;2024-03-06T15:03:22;5.70;99.90
11126;DHT22;5617;54.046;10.676;2024-03-06T15:05:30;5.70;99.90
11126;DHT22;5617;54.046;10.676;2024-03-06T15:07:40;5.70;99.90
11126;DHT22;5617;54.046;10.676;2024-03-06T15:10:01;5.70;99.90
11126;DHT22;5617;54.046;10.676;2024-03-06T15:12:27;5.70;99.90
11126;DHT22;5617;54.046;10.676;2024-03-06T15:14:36;5.60;99.90
11126;DHT22;5617;54.046;10.676;2024-03-06T15:16:54;5.70;99.90
11126;DHT22;5617;54.046;10.676;2024-03-06T15:19:07;5.70;99.90
11126;DHT22;5617;54.046;10.676;2024-03-06T15:21:16;5.70;99.90
11126;DHT22;5617;54.046;10.676;2024-03-06T15:23:25;5.70;99.90
11126;DHT22;5617;54.046;10.676;2024-03-06T15:25:37;5.80;99.90
11126;DHT22;5617;54.046;10.676;2024-03-06T15:27:44;5.90;99.90
11126;DHT22;5617;54.046;10.676;2024-03-06T15:29:54;5.90;99.90
11126;DHT22;5617;54.046;10.676;2024-03-06T15:32:20;5.90;99.90
11126;DHT22;5617;54.046;10.676;2024-03-06T15:34:31;5.90;99.90
11126;DHT22;5617;54.046;10.676;2024-03-06T15:36:39;5.90;99.90
11126;DHT22;5617;54.046;10.676;2024-03-06T15:38:48;5.80;99.90
11126;DHT22;5617;54.046;10.676;2024-03-06T15:40:57;5.80;99.90
11126;DHT22;5617;54.046;10.676;2024-03-06T15:43:06;5.80;99.90
11126;DHT22;5617;54.046;10.676;2024-03-06T15:45:15;5.80;99.90
11126;DHT22;5617;54.046;10.676;2024-03-06T15:47:29;5.80;99.90
11126;DHT22;5617;54.046;10.676;2024-03-06T15:49:40;5.70;99.90
11126;DHT22;5617;54.046;10.676;2024-03-06T15:51:48;5.80;99.90
11126;DHT22;5617;54.046;10.676;2024-03-06T15:53:57;5.80;99.90
11126;DHT22;5617;54.046;10.676;2024-03-06T15:56:06;5.80;99.90
11126;DHT22;5617;54.046;10.676;2024-03-06T15:58:14;5.80;99.90
11126;DHT22;5617;54.046;10.676;2024-03-06T16:00:23;5.80;99.90
11126;DHT22;5617;54.046;10.676;2024-03-06T16:02:32;5.80;99.90
11126;DHT22;5617;54.046;10.676;2024-03-06T16:04:42;5.80;99.90
11126;DHT22;5617;54.046;10.676;2024-03-06T16:06:51;5.80;99.90
11126;DHT22;5617;54.046;10.676;2024-03-06T16:09:00;5.70;99.90
11126;DHT22;5617;54.046;10.676;2024-03-06T16:11:08;5.80;99.90
11126;DHT22;5617;54.046;10.676;2024-03-06T16:13:17;5.80;99.90
11126;DHT22;5617;54.046;10.676;2024-03-06T16:15:26;5.80;99.90
11126;DHT22;5617;54.046;10.676;2024-03-06T16:17:37;5.80;99.90
11126;DHT22;5617;54.046;10.676;2024-03-06T16:19:48;5.90;99.90
11126;DHT22;5617;54.046;10.676;2024-03-06T16:21:58;5.90;99.90
11126;DHT22;5617;54.046;10.676;2024-03-06T16:24:07;5.90;99.90
11126;DHT22;5617;54.046;10.676;2024-03-06T16:26:17;5.90;99.90
11126;DHT22;5617;54.046;10.676;2024-03-06T16:28:26;5.90;99.90
11126;DHT22;5617;54.046;10.676;2024-03-06T16:30:34;5.90;99.90
11126;DHT22;5617;54.046;10.676;2024-03-06T16:32:43;5.90;99.90
11126;DHT22;5617;54.046;10.676;2024-03-06T16:34:53;6.00;99.90
11126;DHT22;5617;54.046;10.676;2024-03-06T16:37:01;6.00;99.90
11126;DHT22;5617;54.046;10.676;2024-03-06T16:39:10;5.90;99.90
11126;DHT22;5617;54.046;10.676;2024-03-06T16:41:20;5.80;99.90
11126;DHT22;5617;54.046;10.676;2024-03-06T16:43:28;5.80;99.90
11126;DHT22;5617;54.046;10.676;2024-03-06T16:45:37;5.80;99.90
11126;DHT22;5617;54.046;10.676;2024-03-06T16:47:46;5.90;99.90
11126;DHT22;5617;54.046;10.676;2024-03-06T16:49:58;5.80;99.90
11126;DHT22;5617;54.046;10.676;2024-03-06T16:52:12;5.80;99.90
11126;DHT22;5617;54.046;10.676;2024-03-06T16:54:20;5.80;99.90
11126;DHT22;5617;54.046;10.676;2024-03-06T16:56:31;5.70;99.90
11126;DHT22;5617;54.046;10.676;2024-03-06T16:58:41;5.60;99.90
11126;DHT22;5617;54.046;10.676;2024-03-06T17:00:49;5.60;99.90
11126;DHT22;5617;54.046;10.676;2024-03-06T17:02:59;5.50;99.90
11126;DHT22;5617;54.046;10.676;2024-03-06T17:05:11;5.50;99.90
11126;DHT22;5617;54.046;10.676;2024-03-06T17:07:19;5.50;99.90
11126;DHT22;5617;54.046;10.676;2024-03-06T17:09:31;5.50;99.90
11126;DHT22;5617;54.046;10.676;2024-03-06T17:11:39;5.40;99.90
11126;DHT22;5617;54.046;10.676;2024-03-06T17:13:50;5.40;99.90
11126;DHT22;5617;54.046;10.676;2024-03-06T17:16:00;5.30;99.90
11126;DHT22;5617;54.046;10.676;2024-03-06T17:18:08;5.30;99.90
11126;DHT22;5617;54.046;10.676;2024-03-06T17:20:21;5.30;99.90
11126;DHT22;5617;54.046;10.676;2024-03-06T17:22:30;5.30;99.90
11126;DHT22;5617;54.046;10.676;2024-03-06T17:24:39;5.20;99.90
11126;DHT22;5617;54.046;10.676;2024-03-06T17:26:48;5.10;99.90
11126;DHT22;5617;54.046;10.676;2024-03-06T17:29:00;5.10;99.90
11126;DHT22;5617;54.046;10.676;2024-03-06T17:31:09;5.10;99.90
11126;DHT22;5617;54.046;10.676;2024-03-06T17:33:18;5.00;99.90
11126;DHT22;5617;54.046;10.676;2024-03-06T17:35:28;5.00;99.90
11126;DHT22;5617;54.046;10.676;2024-03-06T17:37:36;5.00;99.90
11126;DHT22;5617;54.046;10.676;2024-03-06T17:39:46;4.90;99.90
11126;DHT22;5617;54.046;10.676;2024-03-06T17:41:54;4.90;99.90
11126;DHT22;5617;54.046;10.676;2024-03-06T17:44:03;4.90;99.90
11126;DHT22;5617;54.046;10.676;2024-03-06T17:46:12;4.90;99.90
11126;DHT22;5617;54.046;10.676;2024-03-06T17:48:25;4.80;99.90
11126;DHT22;5617;54.046;10.676;2024-03-06T17:50:38;4.80;99.90
11126;DHT22;5617;54.046;10.676;2024-03-06T17:52:58;4.70;99.90
11126;DHT22;5617;54.046;10.676;2024-03-06T17:55:07;4.70;99.90
11126;DHT22;5617;54.046;10.676;2024-03-06T17:57:16;4.70;99.90
11126;DHT22;5617;54.046;10.676;2024-03-06T17:59:24;4.70;99.90
11126;DHT22;5617;54.046;10.676;2024-03-06T18:01:33;4.70;99.90
11126;DHT22;5617;54.046;10.676;2024-03-06T18:03:43;4.70;99.90
11126;DHT22;5617;54.046;10.676;2024-03-06T18:05:55;4.70;99.90
11126;DHT22;5617;54.046;10.676;2024-03-06T18:08:06;4.70;99.90
11126;DHT22;5617;54.046;10.676;2024-03-06T18:10:15;4.70;99.90
11126;DHT22;5617;54.046;10.676;2024-03-06T18:12:24;4.70;99.90
11126;DHT22;5617;54.046;10.676;2024-03-06T18:14:35;4.70;99.90
11126;DHT22;5617;54.046;10.676;2024-03-06T18:16:43;4.70;99.90
11126;DHT22;5617;54.046;10.676;2024-03-06T18:18:56;4.70;99.90
11126;DHT22;5617;54.046;10.676;2024-03-06T18:21:06;4.70;99.90
11126;DHT22;5617;54.046;10.676;2024-03-06T18:23:21;4.70;99.90
11126;DHT22;5617;54.046;10.676;2024-03-06T18:25:34;4.70;99.90
11126;DHT22;5617;54.046;10.676;2024-03-06T18:27:43;4.70;99.90
11126;DHT22;5617;54.046;10.676;2024-03-06T18:29:51;4.70;99.90
11126;DHT22;5617;54.046;10.676;2024-03-06T18:32:00;4.70;99.90
11126;DHT22;5617;54.046;10.676;2024-03-06T18:34:08;4.70;99.90
11126;DHT22;5617;54.046;10.676;2024-03-06T18:36:21;4.70;99.90
11126;DHT22;5617;54.046;10.676;2024-03-06T18:38:31;4.70;99.90
11126;DHT22;5617;54.046;10.676;2024-03-06T18:40:40;4.70;99.90
11126;DHT22;5617;54.046;10.676;2024-03-06T18:42:53;4.70;99.90
11126;DHT22;5617;54.046;10.676;2024-03-06T18:45:04;4.70;99.90
11126;DHT22;5617;54.046;10.676;2024-03-06T18:47:13;4.70;99.90
11126;DHT22;5617;54.046;10.676;2024-03-06T18:49:22;4.70;99.90
11126;DHT22;5617;54.046;10.676;2024-03-06T18:51:32;4.70;99.90
11126;DHT22;5617;54.046;10.676;2024-03-06T18:53:43;4.70;99.90
11126;DHT22;5617;54.046;10.676;2024-03-06T18:55:54;4.80;99.90
11126;DHT22;5617;54.046;10.676;2024-03-06T18:58:11;4.80;99.90
11126;DHT22;5617;54.046;10.676;2024-03-06T19:00:20;4.80;99.90
11126;DHT22;5617;54.046;10.676;2024-03-06T19:02:29;4.80;99.90
11126;DHT22;5617;54.046;10.676;2024-03-06T19:04:38;4.80;99.90
11126;DHT22;5617;54.046;10.676;2024-03-06T19:06:48;4.90;99.90
11126;DHT22;5617;54.046;10.676;2024-03-06T19:08:59;4.90;99.90
11126;DHT22;5617;54.046;10.676;2024-03-06T19:11:08;4.90;99.90
11126;DHT22;5617;54.046;10.676;2024-03-06T19:13:17;5.00;99.90
11126;DHT22;5617;54.046;10.676;2024-03-06T19:15:26;5.00;99.90
11126;DHT22;5617;54.046;10.676;2024-03-06T19:17:35;5.00;99.90
11126;DHT22;5617;54.046;10.676;2024-03-06T19:19:44;5.00;99.90
11126;DHT22;5617;54.046;10.676;2024-03-06T19:21:54;5.00;99.90
11126;DHT22;5617;54.046;10.676;2024-03-06T19:24:04;5.10;99.90
11126;DHT22;5617;54.046;10.676;2024-03-06T19:26:13;5.10;99.90
11126;DHT22;5617;54.046;10.676;2024-03-06T19:28:23;5.10;99.90
11126;DHT22;5617;54.046;10.676;2024-03-06T19:30:33;5.10;99.90
11126;DHT22;5617;54.046;10.676;2024-03-06T19:32:52;5.10;99.90
11126;DHT22;5617;54.046;10.676;2024-03-06T19:35:05;5.10;99.90
11126;DHT22;5617;54.046;10.676;2024-03-06T19:37:19;5.10;99.90
11126;DHT22;5617;54.046;10.676;2024-03-06T19:39:32;5.00;99.90
11126;DHT22;5617;54.046;10.676;2024-03-06T19:41:41;5.00;99.90
11126;DHT22;5617;54.046;10.676;2024-03-06T19:43:52;5.00;99.90
11126;DHT22;5617;54.046;10.676;2024-03-06T19:46:01;5.00;99.90
11126;DHT22;5617;54.046;10.676;2024-03-06T19:48:10;5.00;99.90
11126;DHT22;5617;54.046;10.676;2024-03-06T19:50:25;5.00;99.90
11126;DHT22;5617;54.046;10.676;2024-03-06T19:52:56;5.00;99.90
11126;DHT22;5617;54.046;10.676;2024-03-06T19:55:06;5.00;99.90
11126;DHT22;5617;54.046;10.676;2024-03-06T19:57:15;5.10;99.90
11126;DHT22;5617;54.046;10.676;2024-03-06T19:59:24;5.10;99.90
11126;DHT22;5617;54.046;10.676;2024-03-06T20:01:32;5.20;99.90
11126;DHT22;5617;54.046;10.676;2024-03-06T20:03:44;5.10;99.90
11126;DHT22;5617;54.046;10.676;2024-03-06T20:06:00;5.10;99.90
11126;DHT22;5617;54.046;10.676;2024-03-06T20:08:10;5.20;99.90
11126;DHT22;5617;54.046;10.676;2024-03-06T20:10:19;5.20;99.90
11126;DHT22;5617;54.046;10.676;2024-03-06T20:12:30;5.20;99.90
11126;DHT22;5617;54.046;10.676;2024-03-06T20:14:41;5.10;99.90
11126;DHT22;5617;54.046;10.676;2024-03-06T20:16:56;5.10;99.90
11126;DHT22;5617;54.046;10.676;2024-03-06T20:19:05;5.20;99.90
11126;DHT22;5617;54.046;10.676;2024-03-06T20:21:22;5.20;99.90
11126;DHT22;5617;54.046;10.676;2024-03-06T20:23:32;5.20;99.90
11126;DHT22;5617;54.046;10.676;2024-03-06T20:25:42;5.20;99.90
11126;DHT22;5617;54.046;10.676;2024-03-06T20:27:50;5.20;99.90
11126;DHT22;5617;54.046;10.676;2024-03-06T20:29:59;5.20;99.90
11126;DHT22;5617;54.046;10.676;2024-03-06T20:32:08;5.20;99.90
11126;DHT22;5617;54.046;10.676;2024-03-06T20:34:17;5.30;99.90
11126;DHT22;5617;54.046;10.676;2024-03-06T20:36:25;5.30;99.90
11126;DHT22;5617;54.046;10.676;2024-03-06T20:38:35;5.30;99.90
11126;DHT22;5617;54.046;10.676;2024-03-06T20:40:48;5.30;99.90
11126;DHT22;5617;54.046;10.676;2024-03-06T20:43:04;5.30;99.90
11126;DHT22;5617;54.046;10.676;2024-03-06T20:45:12;5.30;99.90
11126;DHT22;5617;54.046;10.676;2024-03-06T20:47:21;5.30;99.90
11126;DHT22;5617;54.046;10.676;2024-03-06T20:49:29;5.30;99.90
11126;DHT22;5617;54.046;10.676;2024-03-06T20:51:41;5.40;99.90
11126;DHT22;5617;54.046;10.676;2024-03-06T20:53:51;5.40;99.90
11126;DHT22;5617;54.046;10.676;2024-03-06T20:56:00;5.30;99.90
11126;DHT22;5617;54.046;10.676;2024-03-06T20:58:10;5.30;99.90
11126;DHT22;5617;54.046;10.676;2024-03-06T21:00:21;5.40;99.90
11126;DHT22;5617;54.046;10.676;2024-03-06T21:02:29;5.30;99.90
11126;DHT22;5617;54.046;10.676;2024-03-06T21:04:38;5.40;99.90
11126;DHT22;5617;54.046;10.676;2024-03-06T21:06:47;5.40;99.90
11126;DHT22;5617;54.046;10.676;2024-03-06T21:09:01;5.40;99.90
11126;DHT22;5617;54.046;10.676;2024-03-06T21:11:18;5.40;99.90